Portada
METAR-TAF:

METAR-TAF

Aeropuertos :

Aeropuerto Internacional de Seychelles

Victoria, Mahé, Seychelles

latitud: 04-40S, longitud: 055-31E, altitud: 3 m

Observación

El informe se hizo hace 50 minutos, a las 16:00 UTC
Viento 2 kt con dirección variable
Temperatura 28°C
Humedad 79%
Presión 1010 hPa
Visibilidad 10 km o más
Nubes dispersas a una altura de 2100 ft

METAR: FSIA 111600Z VRB02KT 9999 SCT021 28/24 Q1010 NOSIG

Hora: 20:50 (16:50 UTC)

Pronóstico

El informe se hizo hace 5 horas y 42 minutos, a las 11:08 UTC
Pronóstico válido del 11 a las 12 UTC al 12 a las 12 UTC
Viento 5 kt del este-noreste
Visibilidad 10 km o más
Nubes dispersas a una altura de 2100 ft
Temporalmente
del 11 a las 16 UTC al 12 a las 02 UTC
Escasas nubes a una altura de 1200 ft
Escasas nubes a una altura de 1700 ft, Cumulonimbus.
Cielo nuboso a una altura de 1800 ft
chaparrones de lluvia

TAF: FSIA 111108Z 1112/1212 06005KT 9999 SCT021 TEMPO 1116/1202 SHRA FEW012 FEW017CB BKN018

Observaciones y pronósticos meteorológicos de más de 4000 aeropuertos (mensajes METAR y TAF).

Los puntos amarillos y rojos representan las estaciones disponibles.

Ponga el ratón en el punto deseado para ver el nombre de la estación.

Haga clic para ver las observaciones y los pronósticos meteorológicos.

Para cambiar el mapa : haga clic en los botones verdes con una cruz de color negro para hacer un zoom, en el botón verde con un guión para alejar o en las flechas verdes para mapas adyacentes.


METAR-TAF: